Time;durP1;ratioP1;P1;durP2;ratioP2;P2;SDS_P1;SDS_P2;PMS_P1;PMS_P2;Temp;Humidity;BMP_temperature;BMP_pressure;BME280_temperature;BME280_humidity;BME280_pressure;Samples;Min_cycle;Max_cycle;Signal;HPM_P1;HPM_P2
2022/01/25 00:08:21;;;;;;;19.38;14.93;;;6.30;99.90;;;;;;4140664;28;20087;-63
2022/01/25 00:26:04;;;;;;;31.60;20.38;;;6.40;99.90;;;;;;4137772;28;20042;-63
2022/01/25 00:28:25;;;;;;;30.15;19.98;;;6.40;99.90;;;;;;4138996;28;20054;-63
2022/01/25 00:30:42;;;;;;;32.08;20.45;;;6.50;99.90;;;;;;4137034;28;20493;-63
2022/01/25 00:32:42;;;;;;;36.05;20.50;;;6.50;99.90;;;;;;4139401;28;20026;-63
2022/01/25 00:34:44;;;;;;;32.97;21.55;;;6.50;99.90;;;;;;4139694;28;20137;-63
2022/01/25 00:36:44;;;;;;;32.45;20.35;;;6.50;99.90;;;;;;4141736;28;20038;-63
2022/01/25 00:38:45;;;;;;;34.72;22.27;;;6.50;99.90;;;;;;4142587;28;20496;-63
2022/01/25 00:40:46;;;;;;;32.10;21.42;;;6.60;99.90;;;;;;4134298;28;20058;-63
2022/01/25 00:42:46;;;;;;;31.23;20.70;;;6.60;99.90;;;;;;4139799;28;20074;-63
2022/01/25 00:44:49;;;;;;;36.97;21.58;;;6.60;99.90;;;;;;4142049;28;20052;-63
2022/01/25 00:46:49;;;;;;;30.90;21.13;;;6.60;99.90;;;;;;4142915;28;20433;-63
2022/01/25 00:48:54;;;;;;;31.02;21.23;;;6.60;99.90;;;;;;4141864;28;20037;-63
2022/01/25 00:51:03;;;;;;;34.13;23.60;;;6.60;99.90;;;;;;4142182;28;20375;-63
2022/01/25 00:55:05;;;;;;;32.75;21.95;;;6.50;99.90;;;;;;4147239;28;20049;-65
2022/01/25 00:57:07;;;;;;;31.25;20.77;;;6.60;99.90;;;;;;4145057;28;20085;-62
2022/01/25 00:59:10;;;;;;;32.65;21.42;;;6.60;99.90;;;;;;4142511;28;20068;-63
2022/01/25 01:01:11;;;;;;;31.83;21.63;;;6.60;99.90;;;;;;4143829;28;20042;-63
2022/01/25 01:03:11;;;;;;;34.97;21.80;;;6.60;99.90;;;;;;4139503;28;20654;-63
2022/01/25 01:05:12;;;;;;;31.98;21.98;;;6.60;99.90;;;;;;4144074;28;20066;-64
2022/01/25 01:07:15;;;;;;;33.72;21.92;;;6.60;99.90;;;;;;4147914;28;20058;-64
2022/01/25 01:09:20;;;;;;;35.22;22.88;;;6.60;99.90;;;;;;4146549;28;20037;-63
2022/01/25 01:11:28;;;;;;;31.20;21.80;;;6.60;99.90;;;;;;4142081;28;20043;-63
2022/01/25 01:15:58;;;;;;;33.70;22.20;;;6.70;99.90;;;;;;4138396;28;20123;-63
2022/01/25 01:29:53;;;;;;;33.78;22.08;;;6.60;99.90;;;;;;4142638;28;20041;-61
2022/01/25 01:41:01;;;;;;;32.03;21.23;;;6.60;99.90;;;;;;4142069;28;20038;-63
2022/01/25 01:45:30;;;;;;;33.83;21.38;;;6.60;99.90;;;;;;4137653;28;20137;-65
2022/01/25 01:47:47;;;;;;;34.05;22.15;;;6.60;99.90;;;;;;4141220;28;20489;-63
2022/01/25 01:49:49;;;;;;;34.80;22.10;;;6.60;99.90;;;;;;4143464;28;20037;-63
2022/01/25 01:51:50;;;;;;;34.78;22.70;;;6.70;99.90;;;;;;4141255;28;20066;-63
2022/01/25 01:53:51;;;;;;;35.67;22.77;;;6.70;99.90;;;;;;4135611;28;20057;-63
2022/01/25 01:55:52;;;;;;;35.45;23.50;;;6.70;99.90;;;;;;4140493;28;20041;-63
2022/01/25 01:57:54;;;;;;;37.20;23.00;;;6.60;99.90;;;;;;4138170;28;20033;-63
2022/01/25 01:59:55;;;;;;;31.30;20.73;;;6.60;99.90;;;;;;4140362;28;20038;-62
2022/01/25 02:01:56;;;;;;;36.50;23.05;;;6.60;99.90;;;;;;4145218;28;20108;-63
2022/01/25 02:03:58;;;;;;;33.35;22.20;;;6.50;99.90;;;;;;4143354;28;20042;-63
2022/01/25 02:05:59;;;;;;;33.35;22.92;;;6.60;99.90;;;;;;4141507;28;20040;-63
2022/01/25 02:08:00;;;;;;;32.10;21.75;;;6.60;99.90;;;;;;4136699;28;20038;-63
2022/01/25 02:10:00;;;;;;;35.40;22.95;;;6.60;99.90;;;;;;4142217;28;20121;-63
2022/01/25 02:12:01;;;;;;;37.38;23.40;;;6.60;99.90;;;;;;4136408;28;20041;-63
2022/01/25 02:14:06;;;;;;;33.55;22.58;;;6.60;99.90;;;;;;4142641;28;20054;-63
2022/01/25 02:16:10;;;;;;;33.42;22.08;;;6.60;99.90;;;;;;4136744;28;20065;-63
2022/01/25 02:22:49;;;;;;;39.75;23.20;;;6.60;99.90;;;;;;4141441;28;20037;-63
2022/01/25 02:24:50;;;;;;;34.13;22.63;;;6.60;99.90;;;;;;4142159;28;20046;-63
2022/01/25 02:26:55;;;;;;;41.03;24.08;;;6.60;99.90;;;;;;4142184;28;20035;-63
2022/01/25 02:28:55;;;;;;;34.47;21.20;;;6.60;99.90;;;;;;4137625;28;20038;-62
2022/01/25 02:30:57;;;;;;;34.67;21.45;;;6.60;99.90;;;;;;4142082;28;20035;-63
2022/01/25 02:32:57;;;;;;;31.70;21.42;;;6.60;99.90;;;;;;4138634;28;20047;-63
2022/01/25 02:35:02;;;;;;;33.08;21.88;;;6.60;99.90;;;;;;4136845;28;20489;-63
2022/01/25 02:37:06;;;;;;;34.05;21.48;;;6.60;99.90;;;;;;4141393;28;20053;-63
2022/01/25 02:39:06;;;;;;;33.67;20.80;;;6.60;99.90;;;;;;4143046;28;20079;-63
2022/01/25 02:41:07;;;;;;;36.38;22.58;;;6.60;99.90;;;;;;4140693;28;20628;-63
2022/01/25 02:43:07;;;;;;;36.97;22.88;;;6.60;99.90;;;;;;4144953;28;20041;-63
2022/01/25 02:45:15;;;;;;;33.08;21.45;;;6.60;99.90;;;;;;4138590;28;20157;-63
2022/01/25 02:49:35;;;;;;;36.13;22.17;;;6.60;99.90;;;;;;4143296;28;20377;-63
2022/01/25 02:51:40;;;;;;;38.10;21.88;;;6.50;99.90;;;;;;4138193;28;20050;-63
2022/01/25 02:53:40;;;;;;;32.25;20.45;;;6.50;99.90;;;;;;4140105;28;20050;-63
2022/01/25 02:55:41;;;;;;;33.28;21.17;;;6.50;99.90;;;;;;4139012;28;20034;-62
2022/01/25 02:57:41;;;;;;;29.67;21.15;;;6.60;99.90;;;;;;4137750;28;20069;-63
2022/01/25 02:59:42;;;;;;;33.00;20.33;;;6.60;99.90;;;;;;4137802;28;20038;-63
2022/01/25 03:01:44;;;;;;;31.85;21.30;;;6.60;99.90;;;;;;4140234;28;20030;-66
2022/01/25 03:03:45;;;;;;;30.35;20.00;;;6.60;99.90;;;;;;4143625;28;20144;-63
2022/01/25 03:05:45;;;;;;;34.78;20.88;;;6.60;99.90;;;;;;4139878;28;20038;-63
2022/01/25 03:07:46;;;;;;;35.47;21.88;;;6.60;99.90;;;;;;4136580;28;20048;-63
2022/01/25 03:09:46;;;;;;;31.55;21.05;;;6.60;99.90;;;;;;4144226;28;20042;-63
2022/01/25 03:11:50;;;;;;;32.65;22.02;;;6.60;99.90;;;;;;4138071;28;20121;-63
2022/01/25 03:13:57;;;;;;;38.95;22.58;;;6.60;99.90;;;;;;4143966;28;20054;-63
2022/01/25 03:16:03;;;;;;;32.72;21.80;;;6.60;99.90;;;;;;4138810;28;20049;-63
2022/01/25 03:18:12;;;;;;;32.85;21.52;;;6.70;99.90;;;;;;4140414;28;20112;-62
2022/01/25 03:20:20;;;;;;;39.33;22.40;;;6.70;99.90;;;;;;4143119;28;20040;-63
2022/01/25 03:24:54;;;;;;;31.30;20.52;;;6.70;99.90;;;;;;4112260;28;20054;-63
2022/01/25 03:26:54;;;;;;;30.08;20.08;;;6.70;99.90;;;;;;4134111;28;20064;-63
2022/01/25 03:28:55;;;;;;;32.40;21.65;;;6.70;99.90;;;;;;4139399;28;20096;-63
2022/01/25 03:30:56;;;;;;;33.17;20.85;;;6.70;99.90;;;;;;4138676;28;20039;-63
2022/01/25 03:32:57;;;;;;;34.10;21.63;;;6.70;99.90;;;;;;4141988;28;20041;-63
2022/01/25 03:34:57;;;;;;;32.97;21.38;;;6.70;99.90;;;;;;4145035;28;20096;-63
2022/01/25 03:36:58;;;;;;;35.80;20.95;;;6.70;99.90;;;;;;4138949;28;20042;-63
2022/01/25 03:38:58;;;;;;;32.00;21.75;;;6.70;99.90;;;;;;4142647;28;20047;-63
2022/01/25 03:40:59;;;;;;;31.45;20.95;;;6.70;99.90;;;;;;4143943;28;20123;-63
2022/01/25 03:43:01;;;;;;;31.10;21.00;;;6.70;99.90;;;;;;4139771;28;20092;-63
2022/01/25 03:45:02;;;;;;;32.67;21.83;;;6.70;99.90;;;;;;4139744;28;20057;-63
2022/01/25 03:47:08;;;;;;;31.27;20.50;;;6.70;99.90;;;;;;4135635;28;20070;-63
2022/01/25 03:51:28;;;;;;;33.00;21.63;;;6.70;99.90;;;;;;4137999;28;20485;-63
2022/01/25 03:53:28;;;;;;;36.75;22.42;;;6.70;99.90;;;;;;4138505;28;20088;-63
2022/01/25 03:55:29;;;;;;;33.72;21.17;;;6.70;99.90;;;;;;4142952;28;20458;-63
2022/01/25 03:57:30;;;;;;;32.42;21.63;;;6.70;99.90;;;;;;4142093;28;20033;-63
2022/01/25 03:59:30;;;;;;;31.25;21.80;;;6.70;99.90;;;;;;4140340;28;20052;-63
2022/01/25 04:01:32;;;;;;;37.08;22.23;;;6.70;99.90;;;;;;4139696;28;20083;-63
2022/01/25 04:03:38;;;;;;;37.17;22.92;;;6.70;99.90;;;;;;4142463;28;20041;-63
2022/01/25 04:07:48;;;;;;;35.25;21.15;;;6.60;99.90;;;;;;4137127;28;20058;-62
2022/01/25 04:09:49;;;;;;;34.03;20.75;;;6.60;99.90;;;;;;4140540;28;20066;-63
2022/01/25 04:11:49;;;;;;;29.63;19.98;;;6.60;99.90;;;;;;4141311;28;20371;-63
2022/01/25 04:13:52;;;;;;;32.53;20.40;;;6.60;99.90;;;;;;4140897;28;20401;-63
2022/01/25 04:15:56;;;;;;;;;;;6.60;99.90;;;;;;4140605;28;20453;-63
2022/01/25 04:18:20;;;;;;;29.60;19.65;;;6.60;99.90;;;;;;4139580;28;19909;-63
2022/01/25 04:20:25;;;;;;;32.63;20.27;;;6.60;99.90;;;;;;4141646;28;20062;-63
2022/01/25 04:26:57;;;;;;;32.20;21.35;;;6.60;99.90;;;;;;4145319;28;20038;-63
2022/01/25 04:28:58;;;;;;;30.85;20.30;;;6.60;99.90;;;;;;4141872;28;20053;-62
2022/01/25 04:30:59;;;;;;;33.47;21.10;;;6.70;99.90;;;;;;4144283;28;20034;-63
2022/01/25 04:33:03;;;;;;;31.65;21.20;;;6.70;99.90;;;;;;4144596;28;20469;-62
2022/01/25 04:35:26;;;;;;;29.63;19.88;;;6.70;99.90;;;;;;4143525;28;20049;-64
2022/01/25 04:51:28;;;;;;;33.05;21.50;;;6.50;99.90;;;;;;4137153;28;20085;-63
2022/01/25 04:53:40;;;;;;;31.08;20.35;;;6.50;99.90;;;;;;4139588;28;20447;-62
2022/01/25 04:55:49;;;;;;;33.05;21.58;;;6.50;99.90;;;;;;4141448;28;20042;-63
2022/01/25 04:57:57;;;;;;;34.95;21.65;;;6.50;99.90;;;;;;4137885;28;20513;-63
2022/01/25 05:00:04;;;;;;;32.28;21.35;;;6.50;99.90;;;;;;4142916;28;20058;-63
2022/01/25 05:02:14;;;;;;;34.47;23.20;;;6.40;99.90;;;;;;4144666;28;20479;-63
2022/01/25 05:04:22;;;;;;;33.53;22.98;;;6.40;99.90;;;;;;4143209;28;20437;-63
2022/01/25 05:06:24;;;;;;;33.47;21.65;;;6.40;99.90;;;;;;4138672;28;20462;-63
2022/01/25 05:08:36;;;;;;;33.92;21.48;;;6.40;99.90;;;;;;4145649;28;20045;-63
2022/01/25 05:10:48;;;;;;;31.00;20.57;;;6.40;99.90;;;;;;4138632;28;20037;-63
2022/01/25 05:13:17;;;;;;;34.17;21.27;;;6.50;99.90;;;;;;4140715;28;20295;-63
2022/01/25 05:17:28;;;;;;;30.70;21.13;;;6.50;99.90;;;;;;4138029;28;20066;-63
2022/01/25 05:23:53;;;;;;;34.88;23.08;;;6.50;99.90;;;;;;4141123;28;20030;-63
2022/01/25 05:25:53;;;;;;;34.03;22.77;;;6.50;99.90;;;;;;4140549;28;20129;-63
2022/01/25 05:27:54;;;;;;;33.67;22.77;;;6.50;99.90;;;;;;4143438;28;20379;-63
2022/01/25 05:29:54;;;;;;;32.22;21.77;;;6.50;99.90;;;;;;4134635;28;20116;-63
2022/01/25 05:31:56;;;;;;;32.70;21.65;;;6.50;99.90;;;;;;4139225;28;20041;-63
2022/01/25 05:33:56;;;;;;;34.00;23.00;;;6.60;99.90;;;;;;4137474;28;20387;-63
2022/01/25 05:35:57;;;;;;;34.50;23.42;;;6.60;99.90;;;;;;4141822;28;20053;-63
2022/01/25 05:37:58;;;;;;;33.17;21.85;;;6.60;99.90;;;;;;4144548;28;20444;-62
2022/01/25 05:40:00;;;;;;;35.70;22.48;;;6.60;99.90;;;;;;4139629;28;20029;-63
2022/01/25 05:42:21;;;;;;;35.60;23.20;;;6.60;99.90;;;;;;4144580;28;20048;-63
2022/01/25 05:44:26;;;;;;;36.95;23.67;;;6.60;99.90;;;;;;4144237;28;20187;-63
2022/01/25 05:46:38;;;;;;;33.40;22.10;;;6.60;99.90;;;;;;4141786;28;20482;-63
2022/01/25 05:48:39;;;;;;;35.78;24.08;;;6.60;99.90;;;;;;4136793;28;20053;-63
2022/01/25 05:50:39;;;;;;;38.60;25.30;;;6.60;99.90;;;;;;4137816;28;20033;-63
2022/01/25 05:52:41;;;;;;;35.30;23.65;;;6.60;99.90;;;;;;4145571;28;20034;-63
2022/01/25 05:54:41;;;;;;;38.65;24.58;;;6.60;99.90;;;;;;4140144;28;20546;-63
2022/01/25 05:56:42;;;;;;;36.97;24.42;;;6.60;99.90;;;;;;4140752;28;20093;-63
2022/01/25 05:58:43;;;;;;;43.08;25.45;;;6.60;99.90;;;;;;4141390;28;20420;-62
2022/01/25 06:00:43;;;;;;;38.08;24.45;;;6.60;99.90;;;;;;4144173;28;20025;-63
2022/01/25 06:02:45;;;;;;;39.45;25.42;;;6.60;99.90;;;;;;4143128;28;20058;-63
2022/01/25 06:04:46;;;;;;;39.92;24.35;;;6.60;99.90;;;;;;4140289;28;20375;-63
2022/01/25 06:06:47;;;;;;;35.78;24.20;;;6.60;99.90;;;;;;4139537;28;20038;-64
2022/01/25 06:08:48;;;;;;;38.08;24.45;;;6.60;99.90;;;;;;4141296;28;20077;-63
2022/01/25 06:10:48;;;;;;;36.38;24.00;;;6.60;99.90;;;;;;4143562;28;20038;-63
2022/01/25 06:12:49;;;;;;;37.63;24.67;;;6.60;99.90;;;;;;4139763;28;20444;-63
2022/01/25 06:14:50;;;;;;;38.15;24.67;;;6.60;99.90;;;;;;4143351;28;20054;-64
2022/01/25 06:16:50;;;;;;;33.83;23.83;;;6.60;99.90;;;;;;4143342;28;20374;-64
2022/01/25 06:18:51;;;;;;;35.63;23.45;;;6.60;99.90;;;;;;4146157;28;20038;-64
2022/01/25 06:20:51;;;;;;;36.33;24.33;;;6.50;99.90;;;;;;4135412;28;20129;-65
2022/01/25 06:22:52;;;;;;;34.83;23.52;;;6.50;99.90;;;;;;4137694;28;20044;-62
2022/01/25 06:24:53;;;;;;;38.92;23.85;;;6.50;99.90;;;;;;4141799;28;20470;-62
2022/01/25 06:26:53;;;;;;;36.35;23.85;;;6.40;99.90;;;;;;4144010;28;20472;-62
2022/01/25 06:28:54;;;;;;;34.25;23.33;;;6.30;99.90;;;;;;4146208;28;20034;-62
2022/01/25 06:30:55;;;;;;;40.53;25.70;;;6.40;99.90;;;;;;4139966;28;20050;-63
2022/01/25 06:32:55;;;;;;;38.30;23.85;;;6.40;99.90;;;;;;4144595;28;20477;-63
2022/01/25 06:34:56;;;;;;;37.13;25.27;;;6.40;99.90;;;;;;4139150;28;20100;-63
2022/01/25 06:36:57;;;;;;;36.00;23.90;;;6.40;99.90;;;;;;4138662;28;20053;-63
2022/01/25 06:38:57;;;;;;;37.10;24.33;;;6.40;99.90;;;;;;4141139;28;20042;-63
2022/01/25 06:40:58;;;;;;;40.05;24.10;;;6.40;99.90;;;;;;4140070;28;20414;-63
2022/01/25 06:42:58;;;;;;;43.25;25.85;;;6.20;99.90;;;;;;4142922;28;20038;-62
2022/01/25 06:45:04;;;;;;;41.30;24.65;;;6.30;99.90;;;;;;4141194;28;20046;-63
2022/01/25 06:47:05;;;;;;;34.70;21.95;;;6.30;99.90;;;;;;4144291;28;20030;-63
2022/01/25 06:49:05;;;;;;;37.90;23.50;;;6.30;99.90;;;;;;4144810;28;20145;-63
2022/01/25 06:51:06;;;;;;;37.97;23.42;;;6.30;99.90;;;;;;4142306;28;20040;-63
2022/01/25 06:53:07;;;;;;;37.90;24.00;;;6.30;99.90;;;;;;4141990;28;20125;-63
2022/01/25 06:55:10;;;;;;;35.58;22.08;;;6.40;99.90;;;;;;4135049;28;20474;-63
2022/01/25 06:57:12;;;;;;;37.10;23.60;;;6.40;99.90;;;;;;4141321;28;20116;-63
2022/01/25 06:59:12;;;;;;;37.28;22.08;;;6.40;99.90;;;;;;4142951;28;20045;-63
2022/01/25 07:01:13;;;;;;;40.22;24.23;;;6.40;99.90;;;;;;4144440;28;20038;-63
2022/01/25 07:03:14;;;;;;;43.45;25.77;;;6.40;99.90;;;;;;4144055;28;20141;-63
2022/01/25 07:05:14;;;;;;;37.10;23.70;;;6.40;99.90;;;;;;4143223;28;20386;-63
2022/01/25 07:07:15;;;;;;;41.42;25.90;;;6.40;99.90;;;;;;4142775;28;20041;-63
2022/01/25 07:09:16;;;;;;;39.38;25.02;;;6.50;99.90;;;;;;4138977;28;20074;-63
2022/01/25 07:11:17;;;;;;;39.65;23.77;;;6.50;99.90;;;;;;4143689;28;20041;-62
2022/01/25 07:13:17;;;;;;;40.65;24.38;;;6.50;99.90;;;;;;4137562;28;20049;-63
2022/01/25 07:15:18;;;;;;;38.15;23.90;;;6.50;99.90;;;;;;4143545;28;20046;-63
2022/01/25 07:17:19;;;;;;;37.28;22.48;;;6.50;99.90;;;;;;4142266;28;20061;-63
2022/01/25 07:19:20;;;;;;;39.33;24.13;;;6.50;99.90;;;;;;4137701;28;20045;-63
2022/01/25 07:21:20;;;;;;;36.85;23.25;;;6.50;99.90;;;;;;4140939;28;20030;-63
2022/01/25 07:23:21;;;;;;;37.45;23.90;;;6.50;99.90;;;;;;4143312;28;20474;-63
2022/01/25 07:25:21;;;;;;;48.00;28.08;;;6.50;99.90;;;;;;4140223;28;20252;-63
2022/01/25 07:27:22;;;;;;;46.80;27.20;;;6.40;99.90;;;;;;4142969;28;20037;-63
2022/01/25 07:29:23;;;;;;;42.17;26.95;;;6.40;99.90;;;;;;4139532;28;20108;-63
2022/01/25 07:31:23;;;;;;;40.83;26.08;;;6.40;99.90;;;;;;4135251;28;20379;-63
2022/01/25 07:33:24;;;;;;;41.63;25.42;;;6.40;99.90;;;;;;4135249;28;20242;-63
2022/01/25 07:35:24;;;;;;;41.70;25.23;;;6.40;99.90;;;;;;4141939;28;20088;-63
2022/01/25 07:37:25;;;;;;;40.20;26.27;;;6.40;99.90;;;;;;4142371;28;20084;-63
2022/01/25 07:39:26;;;;;;;41.92;26.10;;;6.40;99.90;;;;;;4139752;28;20113;-63
2022/01/25 07:41:27;;;;;;;43.08;25.40;;;6.40;99.90;;;;;;4141457;28;20553;-63
2022/01/25 07:43:27;;;;;;;39.75;26.23;;;6.40;99.90;;;;;;4136035;28;20038;-63
2022/01/25 07:45:34;;;;;;;40.88;25.92;;;6.50;99.90;;;;;;4140108;28;20099;-63
2022/01/25 07:47:35;;;;;;;43.35;27.27;;;6.50;99.90;;;;;;4140794;28;20088;-62
2022/01/25 07:49:36;;;;;;;44.97;26.60;;;6.50;99.90;;;;;;4138704;28;20042;-63
2022/01/25 07:51:37;;;;;;;43.03;26.63;;;6.50;99.90;;;;;;4140153;28;20092;-63
2022/01/25 07:53:38;;;;;;;42.00;26.73;;;6.50;99.90;;;;;;4138784;28;23185;-63
2022/01/25 07:55:38;;;;;;;41.47;26.63;;;6.50;99.90;;;;;;4129704;28;20046;-62
2022/01/25 07:57:39;;;;;;;44.40;26.67;;;6.50;99.90;;;;;;4143075;28;20038;-62
2022/01/25 07:59:40;;;;;;;47.30;28.17;;;6.50;99.90;;;;;;4141622;28;20380;-63
2022/01/25 08:01:41;;;;;;;40.70;26.60;;;6.50;99.90;;;;;;4142771;28;20100;-63
2022/01/25 08:03:43;;;;;;;48.55;28.60;;;6.50;99.90;;;;;;4141647;28;20129;-62
2022/01/25 08:05:45;;;;;;;44.42;27.70;;;6.50;99.90;;;;;;4141574;28;20056;-63
2022/01/25 08:07:46;;;;;;;48.17;29.55;;;6.50;99.90;;;;;;4142383;28;20050;-62
2022/01/25 08:09:47;;;;;;;46.22;28.27;;;6.50;99.90;;;;;;4141450;28;20516;-63
2022/01/25 08:11:48;;;;;;;43.95;28.10;;;6.50;99.90;;;;;;4142084;28;20064;-63
2022/01/25 08:13:50;;;;;;;46.13;27.23;;;6.50;99.90;;;;;;4142156;28;20050;-63
2022/01/25 08:15:50;;;;;;;43.45;27.05;;;6.50;99.90;;;;;;4156942;28;20471;-63
2022/01/25 08:17:51;;;;;;;44.92;28.33;;;6.50;99.90;;;;;;4142148;28;20046;-63
2022/01/25 08:19:52;;;;;;;41.95;27.10;;;6.50;99.90;;;;;;4141806;28;20046;-63
2022/01/25 08:21:52;;;;;;;43.60;26.60;;;6.60;99.90;;;;;;4142321;28;20057;-63
2022/01/25 08:23:53;;;;;;;44.70;27.35;;;6.50;99.90;;;;;;4142739;28;20517;-63
2022/01/25 08:25:53;;;;;;;44.92;27.60;;;6.60;99.90;;;;;;4139151;28;20058;-63
2022/01/25 08:27:55;;;;;;;44.53;26.95;;;6.50;99.90;;;;;;4140559;28;20042;-63
2022/01/25 08:29:56;;;;;;;42.90;26.50;;;6.60;99.90;;;;;;4142902;28;20473;-63
2022/01/25 08:31:57;;;;;;;41.88;26.50;;;6.50;99.90;;;;;;4141316;28;20034;-63
2022/01/25 08:33:58;;;;;;;44.60;27.08;;;6.60;99.90;;;;;;4142708;28;20038;-63
2022/01/25 08:35:58;;;;;;;46.88;27.20;;;6.50;99.90;;;;;;4138754;28;20481;-63
2022/01/25 08:37:59;;;;;;;48.40;27.13;;;6.60;99.90;;;;;;4142147;28;20038;-63
2022/01/25 08:40:00;;;;;;;44.83;28.23;;;6.50;99.90;;;;;;4141584;28;20084;-63
2022/01/25 08:42:01;;;;;;;42.47;26.95;;;6.50;99.90;;;;;;4138845;28;20401;-63
2022/01/25 08:44:02;;;;;;;43.63;26.15;;;6.50;99.90;;;;;;4140974;28;20054;-62
2022/01/25 08:46:03;;;;;;;43.35;26.95;;;6.40;99.90;;;;;;4141244;28;20465;-62
2022/01/25 08:48:04;;;;;;;42.60;25.95;;;6.40;99.90;;;;;;4140748;28;20113;-63
2022/01/25 08:50:08;;;;;;;42.03;26.75;;;6.40;99.90;;;;;;4139830;28;20069;-66
2022/01/25 08:52:09;;;;;;;44.33;27.38;;;6.50;99.90;;;;;;4139282;28;25051;-63
2022/01/25 08:54:10;;;;;;;48.45;28.88;;;6.40;99.90;;;;;;4141805;28;20489;-62
2022/01/25 08:56:11;;;;;;;46.47;27.48;;;6.40;99.90;;;;;;4141060;28;20408;-63
2022/01/25 08:58:12;;;;;;;46.22;28.02;;;6.40;99.90;;;;;;4141384;28;20038;-62
2022/01/25 09:00:13;;;;;;;45.80;26.88;;;6.40;99.90;;;;;;4140571;28;20492;-64
2022/01/25 09:02:14;;;;;;;44.90;27.73;;;6.40;99.90;;;;;;4141177;28;20141;-61
2022/01/25 09:04:15;;;;;;;45.72;27.27;;;6.40;99.90;;;;;;4141124;28;20050;-61
2022/01/25 09:06:16;;;;;;;44.97;28.10;;;6.50;99.90;;;;;;4143293;28;20485;-61
2022/01/25 09:08:22;;;;;;;44.00;27.17;;;6.50;99.90;;;;;;4145860;28;20038;-61
2022/01/25 09:10:24;;;;;;;45.35;27.20;;;6.50;99.90;;;;;;4143609;28;20038;-63
2022/01/25 09:12:27;;;;;;;43.70;26.48;;;6.50;99.90;;;;;;4144017;28;20045;-61
2022/01/25 09:14:27;;;;;;;;;;;6.50;99.90;;;;;;4145189;28;20050;-62
2022/01/25 09:16:28;;;;;;;44.88;27.65;;;6.50;99.90;;;;;;4144920;28;20374;-63
2022/01/25 09:18:29;;;;;;;43.97;27.33;;;6.50;99.90;;;;;;4143374;28;20042;-62
2022/01/25 09:20:29;;;;;;;46.10;28.27;;;6.50;99.90;;;;;;4144419;28;20049;-62
2022/01/25 09:22:30;;;;;;;50.20;28.40;;;6.50;99.90;;;;;;4144522;28;20030;-63
2022/01/25 09:24:31;;;;;;;47.78;29.35;;;6.50;99.90;;;;;;4142975;28;20045;-62
2022/01/25 09:26:32;;;;;;;46.30;28.13;;;6.50;99.90;;;;;;4144807;28;20084;-62
2022/01/25 09:28:32;;;;;;;44.53;28.35;;;6.50;99.90;;;;;;4144850;28;20026;-63
2022/01/25 09:30:33;;;;;;;45.13;26.35;;;6.50;99.90;;;;;;4142876;28;20084;-63
2022/01/25 09:32:33;;;;;;;49.25;29.25;;;6.60;99.90;;;;;;4143661;28;20110;-63
2022/01/25 09:34:34;;;;;;;46.00;27.88;;;6.50;99.90;;;;;;4143450;28;20470;-63
2022/01/25 09:36:35;;;;;;;46.30;27.83;;;6.60;99.90;;;;;;4142778;28;20034;-65
2022/01/25 09:38:35;;;;;;;45.83;27.20;;;6.60;99.90;;;;;;4140836;28;20092;-61
2022/01/25 09:40:36;;;;;;;47.50;28.42;;;6.60;99.90;;;;;;4144516;28;20038;-61
2022/01/25 09:42:40;;;;;;;42.50;27.05;;;6.60;99.90;;;;;;4144540;28;20587;-61
2022/01/25 09:44:41;;;;;;;44.58;26.33;;;6.60;99.90;;;;;;4141588;28;20065;-63
2022/01/25 09:46:43;;;;;;;46.42;28.05;;;6.60;99.90;;;;;;4142623;28;20029;-63
2022/01/25 09:48:44;;;;;;;45.38;27.98;;;6.60;99.90;;;;;;4145728;28;20049;-65
2022/01/25 09:50:44;;;;;;;45.50;27.60;;;6.60;99.90;;;;;;4143661;28;20041;-61
2022/01/25 09:52:45;;;;;;;48.83;28.52;;;6.60;99.90;;;;;;4145094;28;20044;-61
2022/01/25 09:54:58;;;;;;;44.75;27.80;;;6.60;99.90;;;;;;4144333;28;20057;-65
2022/01/25 09:57:00;;;;;;;47.97;28.43;;;6.60;99.90;;;;;;4143795;28;20030;-63
2022/01/25 09:59:00;;;;;;;55.90;30.90;;;6.60;99.90;;;;;;4144883;28;20050;-63
2022/01/25 10:01:02;;;;;;;51.47;30.73;;;6.50;99.90;;;;;;4144190;28;20184;-64
2022/01/25 10:03:13;;;;;;;49.78;29.00;;;6.40;99.90;;;;;;4144617;28;20504;-62
2022/01/25 10:05:16;;;;;;;44.78;27.77;;;6.40;99.90;;;;;;4142541;28;20057;-62
2022/01/25 10:07:28;;;;;;;50.85;29.02;;;6.30;99.90;;;;;;4145082;28;20489;-63
2022/01/25 10:09:30;;;;;;;46.83;27.80;;;6.30;99.90;;;;;;4144837;28;20385;-62
2022/01/25 10:11:31;;;;;;;47.63;27.95;;;6.30;99.90;;;;;;4144627;28;20496;-63
2022/01/25 10:13:42;;;;;;;48.47;27.23;;;6.30;99.90;;;;;;4144587;28;20033;-61
2022/01/25 10:15:48;;;;;;;43.47;27.65;;;6.30;99.90;;;;;;4142999;28;20402;-61
2022/01/25 10:17:48;;;;;;;43.42;26.42;;;6.30;99.90;;;;;;4144221;28;20046;-62
2022/01/25 10:19:49;;;;;;;46.55;27.02;;;6.30;99.90;;;;;;4144906;28;20072;-61
2022/01/25 10:21:51;;;;;;;46.97;28.73;;;6.30;99.90;;;;;;4143844;28;20084;-61
2022/01/25 10:24:10;;;;;;;46.28;27.55;;;6.30;99.90;;;;;;4144308;28;20111;-61
2022/01/25 10:26:11;;;;;;;50.08;30.00;;;6.30;99.90;;;;;;4143673;28;20171;-61
2022/01/25 10:28:13;;;;;;;47.28;27.95;;;6.30;99.90;;;;;;4145196;28;20038;-61
2022/01/25 10:30:14;;;;;;;;;;;6.30;99.90;;;;;;4143941;28;20053;-61
2022/01/25 10:32:15;;;;;;;49.78;27.85;;;6.30;99.90;;;;;;4144723;28;19927;-61
2022/01/25 10:34:22;;;;;;;47.40;28.95;;;6.30;99.90;;;;;;4144035;28;20489;-61
2022/01/25 10:36:24;;;;;;;48.17;28.60;;;6.30;99.90;;;;;;4143270;28;20050;-61
2022/01/25 10:38:31;;;;;;;48.10;28.83;;;6.30;99.90;;;;;;4144725;28;20042;-62
2022/01/25 10:40:38;;;;;;;51.28;30.25;;;6.30;99.90;;;;;;4143897;28;20589;-61
2022/01/25 10:42:38;;;;;;;46.55;27.70;;;6.30;99.90;;;;;;4143130;28;20392;-61
2022/01/25 10:44:51;;;;;;;49.28;29.55;;;6.30;99.90;;;;;;4144802;28;20058;-61
2022/01/25 10:46:52;;;;;;;48.25;29.33;;;6.20;99.90;;;;;;4144179;28;20038;-62
2022/01/25 10:48:55;;;;;;;53.90;28.40;;;6.30;99.90;;;;;;4144926;28;20370;-61
2022/01/25 10:51:08;;;;;;;52.80;28.70;;;6.30;99.90;;;;;;4143892;28;20496;-62
2022/01/25 10:53:15;;;;;;;;;;;6.30;99.90;;;;;;4143222;28;20041;-61
2022/01/25 10:55:16;;;;;;;53.72;28.42;;;6.30;99.90;;;;;;4142720;28;19951;-61
2022/01/25 10:57:19;;;;;;;52.28;28.73;;;6.40;99.90;;;;;;4143709;28;20073;-61
2022/01/25 10:59:30;;;;;;;47.72;26.65;;;6.30;99.90;;;;;;4144520;28;20046;-61
2022/01/25 11:01:33;;;;;;;49.67;28.42;;;6.30;99.90;;;;;;4143146;28;20044;-61
2022/01/25 11:03:42;;;;;;;45.17;27.67;;;6.40;99.90;;;;;;4144532;28;20084;-61
2022/01/25 11:05:44;;;;;;;48.10;28.90;;;6.40;99.90;;;;;;4141058;28;20049;-61
2022/01/25 11:07:46;;;;;;;51.72;28.45;;;6.40;99.90;;;;;;4143089;28;20172;-61
2022/01/25 11:09:48;;;;;;;50.65;28.92;;;6.30;99.90;;;;;;4143374;28;20041;-61
2022/01/25 11:11:52;;;;;;;46.85;28.23;;;6.40;99.90;;;;;;4142538;28;20038;-61
2022/01/25 11:13:54;;;;;;;45.38;26.15;;;6.40;99.90;;;;;;4144496;28;20128;-63
2022/01/25 11:16:02;;;;;;;46.92;28.05;;;6.40;99.90;;;;;;4142776;28;20049;-62
2022/01/25 11:18:05;;;;;;;50.72;28.27;;;6.40;99.90;;;;;;4143479;28;20099;-62
2022/01/25 11:20:06;;;;;;;50.45;29.23;;;6.40;99.90;;;;;;4142583;28;20080;-63
2022/01/25 11:22:10;;;;;;;47.10;27.00;;;6.40;99.90;;;;;;4142272;28;20045;-61
2022/01/25 11:24:13;;;;;;;50.58;29.10;;;6.40;99.90;;;;;;4143738;28;20042;-61
2022/01/25 11:26:15;;;;;;;50.10;27.63;;;6.40;99.90;;;;;;4142037;28;20037;-60
2022/01/25 11:28:16;;;;;;;46.22;26.45;;;6.40;99.90;;;;;;4143309;28;20136;-61
2022/01/25 11:30:19;;;;;;;45.30;26.38;;;6.40;99.90;;;;;;4143374;28;20038;-61
2022/01/25 11:32:24;;;;;;;46.08;27.15;;;6.40;99.90;;;;;;4143905;28;21284;-61
2022/01/25 11:34:27;;;;;;;47.15;28.20;;;6.40;99.90;;;;;;4142672;28;20686;-61
2022/01/25 11:36:31;;;;;;;46.72;28.02;;;6.50;99.90;;;;;;4143403;28;20690;-61
2022/01/25 11:38:40;;;;;;;46.13;27.15;;;6.50;99.90;;;;;;4143994;28;20034;-61
2022/01/25 11:40:46;;;;;;;50.03;28.17;;;6.50;99.90;;;;;;4141725;28;20407;-61
2022/01/25 11:42:48;;;;;;;52.58;30.88;;;6.50;99.90;;;;;;4144025;28;20392;-61
2022/01/25 11:44:52;;;;;;;52.25;30.20;;;6.40;99.90;;;;;;4143747;28;20062;-61
2022/01/25 11:46:58;;;;;;;53.25;29.25;;;6.50;99.90;;;;;;4143208;28;20401;-61
2022/01/25 11:49:14;;;;;;;47.88;27.48;;;6.40;99.90;;;;;;4144345;28;20539;-61
2022/01/25 11:51:18;;;;;;;49.42;28.63;;;6.40;99.90;;;;;;4142338;28;20389;-61
2022/01/25 11:53:24;;;;;;;58.30;31.45;;;6.30;99.90;;;;;;4144007;28;20452;-60
2022/01/25 11:55:28;;;;;;;51.03;28.42;;;6.20;99.90;;;;;;4142848;28;20064;-61
2022/01/25 11:57:29;;;;;;;59.30;32.53;;;6.20;99.90;;;;;;4143791;28;20037;-60
2022/01/25 11:59:35;;;;;;;60.15;32.08;;;6.10;99.90;;;;;;4144102;28;20026;-61
2022/01/25 12:01:35;;;;;;;57.63;30.85;;;6.10;99.90;;;;;;4143528;28;20109;-61